Time;durP1;ratioP1;P1;durP2;ratioP2;P2;SDS_P1;SDS_P2;PMS_P1;PMS_P2;Temp;Humidity;BMP_temperature;BMP_pressure;BME280_temperature;BME280_humidity;BME280_pressure;Samples;Min_cycle;Max_cycle;Signal;HPM_P1;HPM_P2
2020/12/28 00:01:42;;;;;;;18.52;12.13;;;;;;;-0.29;70.97;100096.88;1710459;82;21577;-62
2020/12/28 00:04:10;;;;;;;16.90;10.63;;;;;;;-0.33;70.53;100088.91;1743161;81;21185;-62
2020/12/28 00:06:38;;;;;;;18.12;11.25;;;;;;;-0.33;70.56;100088.91;1750427;82;21184;-62
2020/12/28 00:09:08;;;;;;;17.17;11.10;;;;;;;-0.30;70.43;100091.19;1754374;82;21134;-62
2020/12/28 00:11:36;;;;;;;18.95;11.45;;;;;;;-0.34;70.52;100076.04;1754808;80;21129;-62
2020/12/28 00:14:04;;;;;;;16.20;9.95;;;;;;;-0.33;70.53;100083.05;1743957;82;21133;-62
2020/12/28 00:16:32;;;;;;;18.73;11.10;;;;;;;-0.35;69.53;100071.70;1744205;82;21145;-62
2020/12/28 00:19:00;;;;;;;19.00;11.50;;;;;;;-0.30;69.99;100059.92;1754112;82;21185;-62
2020/12/28 00:21:28;;;;;;;17.73;11.20;;;;;;;-0.27;70.23;100069.40;1734191;82;21145;-62
2020/12/28 00:23:56;;;;;;;19.55;11.20;;;;;;;-0.30;69.81;100065.78;1752402;82;21253;-62
2020/12/28 00:26:25;;;;;;;19.35;11.90;;;;;;;-0.27;70.15;100068.06;1750842;81;21165;-62
2020/12/28 00:28:53;;;;;;;17.37;11.00;;;;;;;-0.29;70.45;100064.77;1734927;81;21156;-62
2020/12/28 00:31:21;;;;;;;18.40;11.30;;;;;;;-0.27;69.55;100063.55;1752488;81;21177;-62
2020/12/28 00:33:49;;;;;;;13.10;8.98;;;;;;;-0.25;69.31;100059.34;1740563;81;21181;-62
2020/12/28 00:36:17;;;;;;;15.88;10.13;;;;;;;-0.24;68.59;100048.44;1748572;81;21132;-61
2020/12/28 00:38:45;;;;;;;18.50;10.60;;;;;;;-0.21;68.54;100045.37;1741023;82;21133;-62
2020/12/28 00:41:12;;;;;;;16.55;9.90;;;;;;;-0.21;68.41;100040.52;1750893;82;21169;-62
2020/12/28 00:43:44;;;;;;;13.22;8.83;;;;;;;-0.16;68.39;100048.30;1727508;82;21217;-62
2020/12/28 00:46:13;;;;;;;14.68;9.48;;;;;;;-0.21;68.01;100045.37;1731176;81;21655;-62
2020/12/28 00:48:41;;;;;;;17.55;9.85;;;;;;;-0.19;68.24;100042.00;1745160;81;21631;-62
2020/12/28 00:51:14;;;;;;;14.07;9.48;;;;;;;-0.17;68.51;100040.45;1739054;81;21580;-62
2020/12/28 00:53:43;;;;;;;15.28;9.10;;;;;;;-0.17;68.35;100032.42;1706570;82;21174;-62
2020/12/28 00:56:14;;;;;;;14.10;9.30;;;;;;;-0.22;67.61;100033.03;1749059;81;21171;-62
2020/12/28 00:58:43;;;;;;;15.38;8.98;;;;;;;-0.20;67.75;100020.27;1726697;81;21315;-62
2020/12/28 01:01:11;;;;;;;14.07;8.13;;;;;;;-0.17;67.25;100020.38;1736128;82;21157;-62
2020/12/28 01:03:39;;;;;;;14.78;9.15;;;;;;;-0.20;67.42;100015.43;1731172;81;21214;-62
2020/12/28 01:06:16;;;;;;;15.48;11.00;;;;;;;-0.15;67.05;100008.99;1779311;78;28332;-61
2020/12/28 01:08:45;;;;;;;14.40;9.55;;;;;;;0.03;66.91;100008.48;1786511;80;21275;-61
2020/12/28 01:11:21;;;;;;;18.52;10.90;;;;;;;0.09;66.17;100007.17;1782219;79;21348;-61
2020/12/28 01:13:51;;;;;;;16.20;10.53;;;;;;;0.10;66.78;100018.72;1768983;80;21137;-60
2020/12/28 01:16:21;;;;;;;17.30;9.95;;;;;;;0.02;66.86;100009.50;1781473;80;21573;-60
2020/12/28 01:18:49;;;;;;;17.50;10.08;;;;;;;-0.02;66.90;100003.71;1764214;80;21540;-61
2020/12/28 01:21:22;;;;;;;13.88;9.43;;;;;;;-0.03;66.98;100006.06;1760380;80;21149;-61
2020/12/28 01:23:50;;;;;;;18.07;10.30;;;;;;;-0.08;67.09;99998.65;1768641;80;21145;-61
2020/12/28 01:26:19;;;;;;;19.45;10.15;;;;;;;-0.12;67.36;99999.23;1774701;80;21173;-61
2020/12/28 01:28:49;;;;;;;14.43;8.43;;;;;;;-0.13;67.83;99990.88;1778232;80;21193;-61
2020/12/28 01:31:18;;;;;;;15.32;9.80;;;;;;;-0.17;67.60;99978.41;1763928;80;21118;-61
2020/12/28 01:34:04;;;;;;;16.90;9.75;;;;;;;-0.13;68.22;99982.34;1791452;80;21125;-62
2020/12/28 01:36:34;;;;;;;17.00;10.08;;;;;;;-0.21;68.12;99971.78;1779447;80;21189;-61
2020/12/28 01:39:03;;;;;;;17.90;10.15;;;;;;;-0.18;68.44;99977.28;1770078;80;21625;-61
2020/12/28 01:41:32;;;;;;;16.52;9.18;;;;;;;-0.17;68.80;99981.59;1752610;80;21153;-61
2020/12/28 01:44:00;;;;;;;20.30;9.40;;;;;;;-0.23;68.85;99962.31;1787812;80;21472;-61
2020/12/28 01:46:28;;;;;;;14.40;9.10;;;;;;;-0.17;68.81;99970.37;1763579;80;21153;-62
2020/12/28 01:48:56;;;;;;;17.90;9.40;;;;;;;-0.18;68.84;99967.91;1775225;80;21582;-61
2020/12/28 01:51:25;;;;;;;17.75;9.53;;;;;;;-0.20;69.05;99960.58;1784602;80;21160;-61
2020/12/28 01:53:54;;;;;;;17.35;9.93;;;;;;;-0.20;69.10;99950.70;1775890;80;21168;-61
2020/12/28 01:56:34;;;;;;;18.10;9.55;;;;;;;-0.20;69.21;99944.52;1786325;80;23204;-61
2020/12/28 01:59:02;;;;;;;13.80;8.68;;;;;;;-0.21;69.26;99961.09;1770398;80;21310;-61
2020/12/28 02:01:39;;;;;;;14.45;8.73;;;;;;;-0.23;69.40;99947.59;1739369;80;21640;-61
2020/12/28 02:04:08;;;;;;;13.62;7.85;;;;;;;-0.22;69.58;99951.94;1770766;80;21152;-62
2020/12/28 02:06:38;;;;;;;15.03;9.05;;;;;;;-0.29;69.38;99936.36;1760111;80;21615;-61
2020/12/28 02:09:07;;;;;;;13.22;7.60;;;;;;;-0.24;69.46;99932.05;1767533;80;21142;-61
2020/12/28 02:11:35;;;;;;;16.17;9.60;;;;;;;-0.27;69.12;99925.77;1779917;80;21137;-62
2020/12/28 02:14:03;;;;;;;14.65;9.38;;;;;;;-0.25;69.49;99933.61;1779688;80;21694;-61
2020/12/28 02:16:46;;;;;;;17.32;9.28;;;;;;;-0.23;69.37;99919.00;1816353;77;22931;-61
2020/12/28 02:19:15;;;;;;;14.13;8.45;;;;;;;-0.30;69.46;99906.61;1777143;80;21276;-62
2020/12/28 02:21:45;;;;;;;14.05;8.73;;;;;;;-0.31;69.59;99919.15;1759526;80;21748;-62
2020/12/28 02:24:16;;;;;;;17.10;9.53;;;;;;;-0.27;69.49;99916.91;1773875;80;21137;-62
2020/12/28 02:26:45;;;;;;;14.98;8.68;;;;;;;-0.25;69.50;99912.20;1762408;80;21158;-62
2020/12/28 02:29:13;;;;;;;17.07;10.48;;;;;;;-0.29;69.52;99917.13;1758532;81;21153;-62
2020/12/28 02:31:41;;;;;;;17.45;10.05;;;;;;;-0.20;69.76;99928.47;1758725;81;21189;-62
2020/12/28 02:34:27;;;;;;;15.65;9.85;;;;;;;-0.22;70.13;99915.81;1801220;79;23104;-61
2020/12/28 02:36:56;;;;;;;16.65;9.78;;;;;;;-0.28;70.25;99901.87;1776684;80;21538;-61
2020/12/28 02:39:26;;;;;;;17.17;9.85;;;;;;;-0.29;70.29;99908.27;1766334;80;21279;-62
2020/12/28 02:41:55;;;;;;;15.23;9.80;;;;;;;-0.24;70.34;99916.00;1780795;80;21119;-62
2020/12/28 02:44:31;;;;;;;17.25;12.53;;;;;;;-0.26;70.57;99913.22;1776936;79;28330;-61
2020/12/28 02:47:17;;;;;;;17.32;10.50;;;;;;;-0.12;70.05;99907.74;1767693;80;21714;-62
2020/12/28 02:50:04;;;;;;;17.62;11.55;;;;;;;0.06;69.46;99905.86;1791262;80;21245;-62
2020/12/28 02:52:54;;;;;;;18.17;11.45;;;;;;;-0.09;70.12;99914.53;1783125;79;23262;-60
2020/12/28 02:55:27;;;;;;;17.05;10.78;;;;;;;-0.16;70.36;99913.68;1666354;81;21305;-61
2020/12/28 02:58:14;;;;;;;15.93;10.15;;;;;;;-0.21;70.39;99902.73;1744807;80;21587;-60
2020/12/28 03:01:00;;;;;;;15.58;9.95;;;;;;;-0.24;70.68;99889.25;1752169;80;21178;-61
2020/12/28 03:03:47;;;;;;;19.17;10.23;;;;;;;-0.27;70.78;99896.84;1686012;83;22059;-61
2020/12/28 03:06:33;;;;;;;15.88;10.15;;;;;;;-0.31;70.75;99895.58;1720075;82;21160;-61
2020/12/28 03:09:19;;;;;;;16.37;10.53;;;;;;;-0.30;70.93;99882.02;1707705;83;21833;-60
2020/12/28 03:12:07;;;;;;;17.95;11.08;;;;;;;-0.33;70.98;99878.92;1702687;82;21220;-63
2020/12/28 03:14:53;;;;;;;19.37;10.80;;;;;;;-0.30;71.04;99878.02;1698604;83;21162;-61
2020/12/28 03:17:39;;;;;;;17.95;9.90;;;;;;;-0.32;71.11;99880.04;1700798;82;21223;-62
2020/12/28 03:20:25;;;;;;;19.65;10.75;;;;;;;-0.32;71.13;99882.72;1696986;83;21340;-62
2020/12/28 03:23:12;;;;;;;17.48;10.95;;;;;;;-0.30;71.48;99874.50;1692658;82;21624;-63
2020/12/28 03:26:00;;;;;;;20.08;11.85;;;;;;;-0.35;71.67;99877.77;1710381;83;21202;-62
2020/12/28 03:28:46;;;;;;;19.92;10.60;;;;;;;-0.35;71.67;99877.77;1691520;84;21320;-62
2020/12/28 03:31:32;;;;;;;16.75;10.15;;;;;;;-0.36;71.53;99873.46;1694987;84;21163;-63
2020/12/28 03:34:19;;;;;;;18.85;10.98;;;;;;;-0.55;71.68;99849.59;1670597;85;21181;-62
2020/12/28 03:37:05;;;;;;;17.87;11.20;;;;;;;-0.33;71.66;99871.72;1713340;83;21148;-63
2020/12/28 03:39:52;;;;;;;17.48;10.72;;;;;;;-0.38;71.66;99858.61;1722577;83;21348;-63
2020/12/28 03:42:38;;;;;;;20.95;11.90;;;;;;;-0.36;71.56;99863.27;1720410;83;21309;-62
2020/12/28 03:45:23;;;;;;;16.73;11.28;;;;;;;-0.35;71.70;99870.25;1719499;83;21602;-63
2020/12/28 03:48:10;;;;;;;20.30;11.48;;;;;;;-0.34;71.57;99861.20;1722243;83;21564;-63
2020/12/28 03:50:56;;;;;;;19.55;11.97;;;;;;;-0.36;71.80;99853.91;1738592;82;21550;-63
2020/12/28 03:53:42;;;;;;;16.27;10.65;;;;;;;-0.33;71.76;99840.13;1705702;84;21195;-62
2020/12/28 03:56:29;;;;;;;15.75;9.85;;;;;;;-0.35;71.70;99836.81;1755577;80;21163;-62
2020/12/28 03:59:15;;;;;;;17.60;9.95;;;;;;;-0.32;71.52;99849.81;1751396;81;21150;-62
2020/12/28 04:02:02;;;;;;;18.97;10.57;;;;;;;-0.30;71.41;99837.05;1762818;81;21149;-62
2020/12/28 04:04:40;;;;;;;16.35;12.00;;;;;;;-0.26;71.40;99845.00;1755361;79;28424;-62
2020/12/28 04:07:28;;;;;;;17.37;10.60;;;;;;;-0.14;70.98;99832.68;1706079;83;21683;-62
2020/12/28 04:10:14;;;;;;;20.27;10.48;;;;;;;-0.04;70.18;99826.47;1701521;83;21699;-62
2020/12/28 04:12:44;;;;;;;17.73;11.22;;;;;;;-0.11;70.66;99822.41;1719138;83;21209;-62
2020/12/28 04:15:13;;;;;;;18.23;10.85;;;;;;;-0.20;71.13;99812.09;1721267;82;21188;-61
2020/12/28 04:17:41;;;;;;;19.55;10.78;;;;;;;-0.21;71.16;99807.75;1709651;83;21188;-62
2020/12/28 04:20:09;;;;;;;20.12;11.63;;;;;;;-0.25;71.47;99803.86;1704072;82;21671;-61
2020/12/28 04:22:37;;;;;;;17.65;10.60;;;;;;;-0.25;71.69;99809.20;1719404;83;21493;-62
2020/12/28 04:25:05;;;;;;;19.32;10.50;;;;;;;-0.29;72.03;99813.30;1717552;82;21180;-61
2020/12/28 04:27:33;;;;;;;15.60;9.50;;;;;;;-0.27;72.62;99809.90;1719969;83;21129;-61
2020/12/28 04:30:01;;;;;;;18.62;10.80;;;;;;;-0.30;72.98;99803.11;1717780;82;21178;-62
2020/12/28 04:32:29;;;;;;;16.48;10.00;;;;;;;-0.31;73.65;99800.62;1721722;83;21137;-62
2020/12/28 04:34:57;;;;;;;16.97;10.30;;;;;;;-0.39;74.13;99803.48;1700176;83;21148;-61
2020/12/28 04:37:24;;;;;;;16.42;9.98;;;;;;;-0.38;74.31;99777.03;1717888;83;21287;-62
2020/12/28 04:39:52;;;;;;;15.20;8.98;;;;;;;-0.43;73.96;99769.63;1703470;83;21188;-62
2020/12/28 04:42:27;;;;;;;16.87;9.80;;;;;;;-0.44;73.76;99763.13;1650994;87;21597;-62
2020/12/28 04:44:56;;;;;;;15.10;9.48;;;;;;;-0.42;73.61;99764.58;1664205;85;21198;-62
2020/12/28 04:47:23;;;;;;;16.52;9.60;;;;;;;-0.36;73.39;99741.56;1664573;85;21174;-62
2020/12/28 04:49:52;;;;;;;17.05;10.48;;;;;;;-0.36;73.39;99775.00;1662113;85;21253;-62
2020/12/28 04:52:19;;;;;;;15.10;9.55;;;;;;;-0.33;73.01;99774.09;1669688;85;21188;-62
2020/12/28 04:54:47;;;;;;;16.35;9.45;;;;;;;-0.33;72.73;99787.97;1648424;87;21554;-62
2020/12/28 04:57:15;;;;;;;17.27;9.78;;;;;;;-0.25;72.47;99789.94;1678129;85;21166;-61
2020/12/28 04:59:43;;;;;;;15.63;9.23;;;;;;;-0.24;72.56;99780.06;1672809;84;21173;-62
2020/12/28 05:02:12;;;;;;;12.80;7.78;;;;;;;-0.21;71.66;99781.00;1670781;85;21568;-62
2020/12/28 05:04:41;;;;;;;14.98;8.60;;;;;;;-0.19;71.55;99780.30;1681339;83;21366;-62
2020/12/28 05:07:09;;;;;;;18.02;9.35;;;;;;;-0.11;71.57;99783.60;1692939;84;21131;-61
2020/12/28 05:09:37;;;;;;;15.83;8.58;;;;;;;-0.13;71.39;99785.67;1687274;83;21571;-62
2020/12/28 05:12:05;;;;;;;17.65;8.88;;;;;;;-0.10;71.10;99780.42;1691709;84;21142;-62
2020/12/28 05:14:34;;;;;;;14.05;8.43;;;;;;;-0.09;71.05;99789.59;1691478;83;21102;-62
2020/12/28 05:17:07;;;;;;;16.93;9.08;;;;;;;-0.06;70.36;99765.61;1690059;84;21182;-62
2020/12/28 05:19:35;;;;;;;12.85;7.92;;;;;;;-0.07;70.34;99759.43;1689062;83;21582;-62
2020/12/28 05:22:04;;;;;;;16.55;8.83;;;;;;;-0.03;70.14;99773.23;1683978;84;21154;-62
2020/12/28 05:24:32;;;;;;;16.95;8.95;;;;;;;0.00;70.44;99796.94;1687350;83;21158;-62
2020/12/28 05:27:00;;;;;;;16.05;9.63;;;;;;;0.01;70.47;99799.91;1687561;84;21166;-62
2020/12/28 05:29:28;;;;;;;14.95;8.53;;;;;;;0.02;70.76;99788.18;1687278;83;21566;-63
2020/12/28 05:31:56;;;;;;;17.55;10.13;;;;;;;-0.02;70.52;99789.61;1692332;84;21595;-62
2020/12/28 05:34:27;;;;;;;17.20;9.48;;;;;;;0.02;70.63;99782.00;1680041;84;21597;-62
2020/12/28 05:36:58;;;;;;;15.45;9.05;;;;;;;-0.04;70.28;99789.80;1685359;84;21130;-62
2020/12/28 05:39:27;;;;;;;19.45;8.88;;;;;;;-0.02;70.29;99771.70;1665188;84;21184;-62
2020/12/28 05:42:08;;;;;;;14.40;8.55;;;;;;;0.02;70.05;99787.35;1685490;84;21612;-62
2020/12/28 05:44:37;;;;;;;17.82;9.55;;;;;;;0.03;69.88;99793.86;1684554;84;21633;-63
2020/12/28 05:47:09;;;;;;;16.32;9.03;;;;;;;0.01;70.07;99803.92;1695707;84;21180;-62
2020/12/28 05:49:44;;;;;;;14.33;8.75;;;;;;;0.03;69.88;99798.38;1683495;84;21205;-62
2020/12/28 05:52:17;;;;;;;15.40;9.23;;;;;;;0.05;69.72;99798.98;1639322;87;21253;-62
2020/12/28 05:54:45;;;;;;;15.18;8.53;;;;;;;0.08;69.74;99793.22;1667539;86;21189;-62
2020/12/28 05:57:13;;;;;;;14.87;8.63;;;;;;;0.09;69.49;99788.19;1644734;86;21144;-62
2020/12/28 05:59:41;;;;;;;14.30;9.10;;;;;;;0.08;69.59;99781.18;1684625;84;21649;-62
2020/12/28 06:02:09;;;;;;;16.67;9.18;;;;;;;0.09;70.52;99774.30;1682253;84;21191;-63
2020/12/28 06:04:38;;;;;;;15.98;8.85;;;;;;;0.08;69.35;99782.52;1660785;85;21144;-62
2020/12/28 06:07:06;;;;;;;16.70;9.55;;;;;;;0.15;69.64;99796.73;1709648;83;21291;-62
2020/12/28 06:09:34;;;;;;;15.43;9.00;;;;;;;0.11;69.58;99798.20;1719803;82;21164;-62
2020/12/28 06:12:09;;;;;;;16.10;9.45;;;;;;;0.08;69.17;99787.36;1718755;83;21314;-63
2020/12/28 06:14:39;;;;;;;16.48;10.15;;;;;;;0.11;69.19;99786.16;1720354;82;21203;-62
2020/12/28 06:17:36;;;;;;;22.50;11.93;;;;;;;0.15;69.05;99789.53;1808622;79;23516;-62
2020/12/28 06:20:06;;;;;;;17.23;9.13;;;;;;;0.12;69.01;99775.73;1749205;80;21148;-61
2020/12/28 06:22:34;;;;;;;18.45;9.88;;;;;;;0.16;68.56;99765.77;1677598;85;21198;-61
2020/12/28 06:25:09;;;;;;;18.70;10.58;;;;;;;0.18;68.64;99770.39;1651481;85;21649;-61
2020/12/28 06:27:42;;;;;;;18.02;9.90;;;;;;;0.18;68.67;99769.59;1648576;87;21199;-61
2020/12/28 06:30:21;;;;;;;18.45;9.83;;;;;;;0.17;68.47;99772.77;1682772;84;21220;-61
2020/12/28 06:32:53;;;;;;;15.38;9.70;;;;;;;0.19;68.66;99761.34;1669600;86;21241;-61
2020/12/28 06:35:23;;;;;;;18.32;10.15;;;;;;;0.22;68.63;99752.06;1676133;84;21349;-62
2020/12/28 06:37:53;;;;;;;18.65;10.88;;;;;;;0.25;68.65;99741.77;1678856;83;21275;-62
2020/12/28 06:40:35;;;;;;;16.27;10.05;;;;;;;0.25;68.60;99745.78;1642478;85;21189;-62
2020/12/28 06:43:17;;;;;;;12.58;8.08;;;;;;;0.24;68.79;99732.62;1689208;85;21130;-61
2020/12/28 06:45:48;;;;;;;16.57;9.28;;;;;;;0.23;68.68;99729.11;1677741;84;21201;-61
2020/12/28 06:48:24;;;;;;;17.57;10.05;;;;;;;0.27;68.83;99731.70;1687315;83;21234;-61
2020/12/28 06:50:53;;;;;;;20.08;10.23;;;;;;;0.27;69.70;99725.00;1672228;86;21200;-62
2020/12/28 06:53:22;;;;;;;26.48;15.13;;;;;;;0.27;69.88;99733.55;1699701;84;21612;-62
2020/12/28 06:55:51;;;;;;;36.63;20.65;;;;;;;0.23;70.22;99727.77;1687225;84;21231;-61
2020/12/28 06:58:20;;;;;;;27.52;14.10;;;;;;;0.18;70.65;99730.77;1677660;84;21178;-62
2020/12/28 07:00:48;;;;;;;25.50;14.20;;;;;;;0.14;70.62;99725.00;1684110;84;21317;-59
2020/12/28 07:03:17;;;;;;;33.10;17.90;;;;;;;0.15;70.85;99713.75;1637996;84;21296;-60
2020/12/28 07:05:45;;;;;;;22.75;13.28;;;;;;;0.17;70.89;99706.36;1693954;84;21192;-60
2020/12/28 07:08:13;;;;;;;23.25;12.53;;;;;;;0.10;71.09;99702.34;1694904;84;21155;-60
2020/12/28 07:10:41;;;;;;;39.58;19.90;;;;;;;0.07;71.51;99709.45;1673361;84;21199;-60
2020/12/28 07:13:09;;;;;;;28.55;16.05;;;;;;;0.08;71.55;99706.23;1647395;87;21208;-59
2020/12/28 07:15:37;;;;;;;23.95;12.23;;;;;;;0.09;71.71;99704.70;1670790;84;21353;-59
2020/12/28 07:18:08;;;;;;;27.40;13.58;;;;;;;0.03;71.83;99705.53;1698496;84;21148;-59
2020/12/28 07:20:36;;;;;;;36.55;18.25;;;;;;;0.05;72.10;99721.37;1719321;83;21250;-59
2020/12/28 07:23:04;;;;;;;37.13;19.42;;;;;;;0.02;72.43;99713.24;1716356;83;21619;-59
2020/12/28 07:25:32;;;;;;;41.75;20.02;;;;;;;0.00;72.54;99714.77;1670896;86;21193;-59
2020/12/28 07:27:59;;;;;;;24.47;11.57;;;;;;;0.02;72.57;99699.86;1687762;84;21644;-59
2020/12/28 07:30:28;;;;;;;33.80;18.27;;;;;;;-0.01;72.73;99681.54;1697515;83;21173;-61
2020/12/28 07:32:57;;;;;;;31.85;16.20;;;;;;;0.04;72.74;99701.01;1698601;84;21193;-59
2020/12/28 07:35:27;;;;;;;26.02;13.32;;;;;;;-0.02;72.90;99678.03;1693004;84;21636;-60
2020/12/28 07:37:55;;;;;;;23.62;11.95;;;;;;;0.01;72.92;99676.80;1670429;86;21212;-60
2020/12/28 07:40:23;;;;;;;21.57;12.00;;;;;;;0.03;72.79;99687.30;1647323;86;21181;-59
2020/12/28 07:42:51;;;;;;;24.37;11.97;;;;;;;0.05;72.95;99678.55;1670365;86;21200;-60
2020/12/28 07:45:21;;;;;;;21.50;12.40;;;;;;;0.05;72.98;99691.41;1670904;84;21173;-60
2020/12/28 07:47:53;;;;;;;20.27;12.23;;;;;;;0.06;73.06;99695.75;1682242;84;21172;-60
2020/12/28 07:50:21;;;;;;;26.42;14.00;;;;;;;0.07;72.96;99700.08;1679376;84;21144;-59
2020/12/28 07:53:07;;;;;;;21.30;11.53;;;;;;;0.09;72.92;99712.73;1691196;84;21185;-59
2020/12/28 07:55:39;;;;;;;26.12;13.28;;;;;;;0.06;73.26;99700.27;1696142;84;21349;-59
2020/12/28 07:58:30;;;;;;;23.30;12.95;;;;;;;0.07;73.13;99708.11;1695792;84;21283;-59
2020/12/28 08:00:58;;;;;;;26.70;13.83;;;;;;;0.07;73.19;99709.45;1632084;84;21944;-59
2020/12/28 08:03:44;;;;;;;20.55;11.35;;;;;;;0.09;73.28;99711.39;1671175;84;21311;-59
2020/12/28 08:06:13;;;;;;;26.33;14.63;;;;;;;0.09;73.40;99707.89;1656894;84;21545;-59
2020/12/28 08:08:41;;;;;;;23.87;13.13;;;;;;;0.10;73.56;99706.36;1694433;84;21181;-58
2020/12/28 08:11:09;;;;;;;28.00;14.45;;;;;;;0.13;73.60;99706.45;1685418;84;21315;-59
2020/12/28 08:13:37;;;;;;;22.58;12.93;;;;;;;0.14;73.57;99704.09;1676862;84;21153;-59
2020/12/28 08:16:15;;;;;;;24.85;13.32;;;;;;;0.20;73.36;99700.08;1697969;84;21227;-59
2020/12/28 08:18:47;;;;;;;22.13;13.18;;;;;;;0.27;73.16;99691.53;1688369;84;21600;-59
2020/12/28 08:21:15;;;;;;;24.92;12.85;;;;;;;0.32;73.19;99699.75;1678545;84;21216;-59
2020/12/28 08:26:35;;;;;;;25.60;14.20;;;;;;;0.44;72.82;99659.79;1795314;78;23108;-59
2020/12/28 08:29:03;;;;;;;26.35;12.47;;;;;;;0.42;72.84;99678.77;1742300;81;21609;-60
2020/12/28 08:31:36;;;;;;;24.65;12.68;;;;;;;0.45;72.61;99672.98;1710060;82;21545;-60
2020/12/28 08:34:09;;;;;;;30.23;19.48;;;;;;;0.45;72.35;99662.27;1716937;83;21324;-60
2020/12/28 08:36:39;;;;;;;28.05;15.10;;;;;;;0.53;72.61;99651.03;1716453;83;21162;-61
2020/12/28 08:39:22;;;;;;;23.60;13.40;;;;;;;0.55;72.53;99651.13;1704858;83;21182;-60
2020/12/28 08:41:56;;;;;;;29.65;15.30;;;;;;;0.52;72.45;99665.45;1707248;83;21162;-61
2020/12/28 08:44:28;;;;;;;25.57;14.18;;;;;;;0.49;72.55;99676.90;1719337;83;21198;-60
2020/12/28 08:46:59;;;;;;;22.58;12.90;;;;;;;0.54;72.33;99654.82;1702077;83;21168;-61
2020/12/28 08:49:32;;;;;;;25.92;14.23;;;;;;;0.56;72.29;99647.93;1705944;83;21616;-61
2020/12/28 08:52:12;;;;;;;26.05;12.95;;;;;;;0.60;72.32;99645.14;1702315;83;21177;-60
2020/12/28 08:54:41;;;;;;;23.12;13.78;;;;;;;0.55;72.23;99643.09;1721693;83;21203;-60
2020/12/28 08:57:25;;;;;;;27.10;15.13;;;;;;;0.59;72.25;99620.72;1754412;81;21145;-61
2020/12/28 08:59:55;;;;;;;34.30;18.77;;;;;;;0.60;72.30;99613.83;1735627;81;21289;-60
2020/12/28 09:02:25;;;;;;;32.45;17.07;;;;;;;0.64;72.42;99624.94;1717671;82;21189;-60
2020/12/28 09:04:54;;;;;;;26.57;13.40;;;;;;;0.66;72.25;99606.79;1728204;82;21188;-60
2020/12/28 09:07:23;;;;;;;25.27;12.80;;;;;;;0.71;72.27;99598.41;1712762;82;21298;-60
2020/12/28 09:09:51;;;;;;;24.15;13.95;;;;;;;0.70;72.17;99611.52;1730524;81;21361;-61
2020/12/28 09:12:20;;;;;;;26.68;14.95;;;;;;;0.68;72.24;99628.82;1744875;82;21165;-61
2020/12/28 09:14:48;;;;;;;21.68;12.35;;;;;;;0.70;72.52;99618.73;1737823;82;21160;-60
2020/12/28 09:17:18;;;;;;;22.70;12.95;;;;;;;0.70;72.27;99609.36;1712729;82;21188;-60
2020/12/28 09:20:59;;;;;;;28.47;14.07;;;;;;;0.67;72.47;99627.20;1816973;79;23007;-60
2020/12/28 09:23:26;;;;;;;22.05;12.98;;;;;;;0.67;72.40;99616.48;1790053;80;21606;-60
2020/12/28 09:25:54;;;;;;;20.55;11.97;;;;;;;0.62;72.54;99621.63;1820667;78;21556;-60
2020/12/28 09:28:22;;;;;;;25.90;13.93;;;;;;;0.60;72.66;99615.16;1827389;78;21164;-60
2020/12/28 09:30:50;;;;;;;19.10;12.65;;;;;;;0.63;72.92;99601.86;1826593;78;21560;-60
2020/12/28 09:33:18;;;;;;;24.30;12.85;;;;;;;0.64;73.02;99599.49;1826955;78;21145;-61
2020/12/28 09:35:46;;;;;;;24.32;13.83;;;;;;;0.65;72.88;99591.73;1808512;78;21128;-60
2020/12/28 09:38:15;;;;;;;21.33;12.43;;;;;;;0.65;72.87;99587.72;1805164;78;21178;-60
2020/12/28 09:40:42;;;;;;;19.50;12.13;;;;;;;0.65;72.85;99577.00;1819431;78;21173;-60
2020/12/28 09:43:12;;;;;;;20.27;12.47;;;;;;;0.62;73.11;99586.30;1827183;78;21575;-61
2020/12/28 09:45:41;;;;;;;20.70;12.98;;;;;;;0.64;73.23;99590.91;1816001;78;21168;-60
2020/12/28 09:48:09;;;;;;;25.17;13.68;;;;;;;0.63;73.33;99586.61;1827190;78;21592;-60
2020/12/28 09:50:39;;;;;;;23.52;14.03;;;;;;;0.58;73.94;99581.56;1822841;78;21113;-61
2020/12/28 09:53:07;;;;;;;24.18;14.35;;;;;;;0.60;74.00;99582.19;1827483;78;21698;-60
2020/12/28 09:55:34;;;;;;;23.85;14.00;;;;;;;0.57;74.22;99566.55;1818760;78;21137;-61
2020/12/28 09:58:03;;;;;;;25.05;14.35;;;;;;;0.58;74.58;99569.51;1827038;78;21144;-61
2020/12/28 10:00:31;;;;;;;27.32;15.10;;;;;;;0.53;75.02;99566.66;1826449;78;21152;-59
2020/12/28 10:02:58;;;;;;;23.62;13.85;;;;;;;0.54;75.61;99562.41;1820545;78;21598;-59
2020/12/28 10:05:26;;;;;;;25.43;14.05;;;;;;;0.58;75.56;99571.67;1778565;78;21542;-60
2020/12/28 10:07:55;;;;;;;24.45;14.15;;;;;;;0.53;75.86;99555.94;1762895;81;21161;-60
2020/12/28 10:10:23;;;;;;;27.70;15.20;;;;;;;0.42;76.12;99548.88;1775591;78;21162;-60
2020/12/28 10:12:51;;;;;;;25.05;13.83;;;;;;;0.36;75.83;99508.19;1794188;80;21621;-60
2020/12/28 10:15:19;;;;;;;25.50;15.23;;;;;;;0.54;75.71;99528.11;1805916;78;21136;-60
2020/12/28 10:18:24;;;;;;;24.92;14.07;;;;;;;0.43;76.26;99549.67;1826959;78;21464;-60
2020/12/28 10:20:52;;;;;;;28.12;14.60;;;;;;;0.41;76.16;99543.20;1823885;78;21613;-60
2020/12/28 10:23:20;;;;;;;32.05;15.40;;;;;;;0.37;76.82;99547.33;1824847;78;21603;-60
2020/12/28 10:25:48;;;;;;;26.10;15.78;;;;;;;0.28;77.31;99527.70;1800364;78;21596;-60
2020/12/28 10:28:16;;;;;;;25.25;14.05;;;;;;;0.34;77.39;99529.02;1799608;78;21148;-60
2020/12/28 10:30:45;;;;;;;25.55;15.60;;;;;;;0.32;77.49;99525.70;1824102;78;21185;-60
2020/12/28 10:33:13;;;;;;;22.95;14.78;;;;;;;0.25;77.89;99510.72;1823723;78;21144;-60
2020/12/28 10:35:41;;;;;;;25.70;15.45;;;;;;;0.29;77.83;99508.73;1813934;78;21536;-61
2020/12/28 10:38:09;;;;;;;28.98;16.55;;;;;;;0.33;77.59;99518.50;1823482;78;21541;-59
2020/12/28 10:40:39;;;;;;;23.95;14.13;;;;;;;0.25;77.90;99518.21;1814574;78;21137;-60
2020/12/28 10:43:09;;;;;;;29.05;15.88;;;;;;;0.30;77.80;99490.81;1824361;78;21105;-60
2020/12/28 10:45:37;;;;;;;27.67;15.10;;;;;;;0.29;77.50;99477.11;1805000;78;21178;-60
2020/12/28 10:48:05;;;;;;;23.00;14.85;;;;;;;0.19;77.65;99482.92;1794206;80;21305;-60
2020/12/28 10:50:33;;;;;;;26.35;13.28;;;;;;;0.22;78.04;99470.45;1794852;78;21170;-60
2020/12/28 10:53:01;;;;;;;23.67;13.90;;;;;;;0.28;78.03;99473.64;1805169;78;21082;-60
2020/12/28 10:55:28;;;;;;;24.52;13.48;;;;;;;0.19;78.55;99459.34;1802122;78;21131;-60
2020/12/28 10:57:57;;;;;;;22.52;13.05;;;;;;;0.20;78.82;99462.33;1784036;80;21407;-60
2020/12/28 11:00:25;;;;;;;24.50;14.43;;;;;;;0.21;78.80;99466.16;1770173;80;21200;-60
2020/12/28 11:02:55;;;;;;;24.07;14.40;;;;;;;0.11;79.45;99443.54;1769351;80;21150;-60
2020/12/28 11:05:23;;;;;;;24.20;14.98;;;;;;;0.11;79.70;99432.83;1794181;80;21203;-59
2020/12/28 11:07:51;;;;;;;28.42;16.07;;;;;;;0.15;79.67;99432.17;1763689;78;21136;-60
2020/12/28 11:10:22;;;;;;;25.75;14.85;;;;;;;0.08;80.09;99419.84;1807351;78;21142;-61
2020/12/28 11:13:13;;;;;;;27.70;15.78;;;;;;;0.19;80.13;99416.00;1820754;78;21574;-60
2020/12/28 11:15:42;;;;;;;25.90;14.68;;;;;;;0.17;80.17;99400.68;1823111;78;21295;-61
2020/12/28 11:18:10;;;;;;;27.65;15.72;;;;;;;0.13;80.41;99410.16;1760513;80;21197;-60
2020/12/28 11:20:38;;;;;;;23.90;14.33;;;;;;;0.19;80.14;99408.48;1804931;78;21153;-60
2020/12/28 11:23:06;;;;;;;25.05;15.15;;;;;;;0.26;79.80;99403.92;1820674;79;21141;-61
2020/12/28 11:25:34;;;;;;;25.65;15.10;;;;;;;0.14;79.88;99406.98;1820794;79;21133;-60
2020/12/28 11:28:02;;;;;;;30.43;15.65;;;;;;;0.22;79.83;99406.71;1815008;79;21144;-60
2020/12/28 11:30:30;;;;;;;31.17;17.27;;;;;;;0.25;79.61;99422.37;1748172;82;21194;-61
2020/12/28 11:32:58;;;;;;;28.50;16.42;;;;;;;0.11;79.90;99434.97;1782300;79;21155;-61
2020/12/28 11:35:25;;;;;;;31.42;16.45;;;;;;;0.20;79.79;99443.59;1798252;79;21130;-60
2020/12/28 11:37:54;;;;;;;32.03;16.48;;;;;;;0.21;79.65;99447.92;1785456;80;21155;-60
2020/12/28 11:40:23;;;;;;;52.90;33.05;;;;;;;0.11;79.89;99441.66;1786063;79;21596;-61
2020/12/28 11:42:51;;;;;;;34.10;18.62;;;;;;;0.19;79.86;99432.58;1818932;79;21659;-60
2020/12/28 11:45:20;;;;;;;33.45;18.25;;;;;;;0.18;79.66;99415.69;1795414;79;21192;-61
2020/12/28 11:47:48;;;;;;;33.83;16.45;;;;;;;0.16;80.06;99410.25;1812698;79;21771;-60
2020/12/28 11:50:17;;;;;;;28.05;15.20;;;;;;;0.21;80.00;99421.16;1802475;79;21166;-60